createdAt,value
2017-04-23T00:00:39.294Z,19.96
2017-04-23T00:01:39.373Z,19.98
2017-04-23T00:02:39.309Z,20.05
2017-04-23T00:03:39.310Z,19.96
2017-04-23T00:04:39.003Z,19.98
2017-04-23T00:05:39.319Z,19.94
2017-04-23T00:06:39.320Z,19.87
2017-04-23T00:07:39.377Z,19.94
2017-04-23T00:08:39.331Z,19.88
2017-04-23T00:09:39.337Z,19.94
2017-04-23T00:10:39.392Z,19.96
2017-04-23T00:11:39.033Z,20.02
2017-04-23T00:12:39.353Z,19.94
2017-04-23T00:13:39.353Z,20.01
2017-04-23T00:14:39.358Z,19.96
2017-04-23T00:15:39.101Z,19.94
2017-04-23T00:16:39.055Z,19.94
2017-04-23T00:17:39.064Z,19.96
2017-04-23T00:18:39.377Z,19.98
2017-04-23T00:19:39.380Z,19.95
2017-04-23T00:20:39.434Z,19.91
2017-04-23T00:21:39.393Z,19.87
2017-04-23T00:22:38.765Z,19.86
2017-04-23T00:23:39.087Z,19.88
2017-04-23T00:24:39.413Z,19.87
2017-04-23T00:25:39.405Z,19.81
2017-04-23T00:26:39.411Z,19.84
2017-04-23T00:27:39.464Z,19.92
2017-04-23T00:28:39.418Z,19.84
2017-04-23T00:29:38.826Z,19.86
2017-04-23T00:30:39.479Z,19.91
2017-04-23T00:31:39.171Z,19.92
2017-04-23T00:32:39.439Z,19.91
2017-04-23T00:33:38.814Z,19.88
2017-04-23T00:34:39.135Z,19.91
2017-04-23T00:35:39.449Z,19.91
2017-04-23T00:36:39.456Z,19.94
2017-04-23T00:37:39.463Z,19.91
2017-04-23T00:38:39.151Z,19.91
2017-04-23T00:39:39.220Z,19.95
2017-04-23T00:40:39.476Z,19.88
2017-04-23T00:41:39.503Z,19.86
2017-04-23T00:42:39.484Z,19.87
2017-04-23T00:43:39.174Z,19.87
2017-04-23T00:44:39.490Z,19.83
2017-04-23T00:45:39.495Z,19.87
2017-04-23T00:46:39.550Z,19.86
2017-04-23T00:47:39.194Z,19.87
2017-04-23T00:48:39.530Z,19.91
2017-04-23T00:49:39.303Z,19.88
2017-04-23T00:50:39.533Z,19.84
2017-04-23T00:51:39.541Z,19.87
2017-04-23T00:52:39.542Z,19.91
2017-04-23T00:53:39.546Z,19.94
2017-04-23T00:54:39.589Z,19.91
2017-04-23T00:55:39.230Z,19.91
2017-04-23T00:56:39.604Z,19.94
2017-04-23T00:57:39.564Z,19.94
2017-04-23T00:58:39.249Z,19.99
2017-04-23T00:59:39.301Z,19.86
2017-04-23T01:00:39.582Z,19.86
2017-04-23T01:01:39.569Z,19.87
2017-04-23T01:02:39.629Z,19.91
2017-04-23T01:03:39.641Z,19.81
2017-04-23T01:04:39.270Z,19.88
2017-04-23T01:05:39.277Z,19.84
2017-04-23T01:06:39.590Z,19.92
2017-04-23T01:07:39.652Z,19.86
2017-04-23T01:08:39.618Z,19.84
2017-04-23T01:09:39.620Z,19.86
2017-04-23T01:10:39.673Z,19.94
2017-04-23T01:11:39.664Z,19.86
2017-04-23T01:12:39.308Z,19.87
2017-04-23T01:13:39.640Z,19.87
2017-04-23T01:14:39.316Z,19.88
2017-04-23T01:15:39.322Z,19.92
2017-04-23T01:16:39.652Z,19.83
2017-04-23T01:17:39.695Z,19.83
2017-04-23T01:18:39.338Z,19.84
2017-04-23T01:19:39.700Z,19.87
2017-04-23T01:20:39.661Z,19.88
2017-04-23T01:21:39.711Z,19.91
2017-04-23T01:22:39.401Z,19.88
2017-04-23T01:23:39.668Z,19.95
2017-04-23T01:24:39.736Z,19.84
2017-04-23T01:25:39.747Z,19.87
2017-04-23T01:26:39.686Z,19.8
2017-04-23T01:27:39.684Z,19.91
2017-04-23T01:28:39.688Z,19.83
2017-04-23T01:29:39.442Z,19.83
2017-04-23T01:30:39.750Z,19.86
2017-04-23T01:31:39.713Z,19.84
2017-04-23T01:32:39.392Z,19.91
2017-04-23T01:33:39.089Z,19.84
2017-04-23T01:34:39.191Z,19.94
2017-04-23T01:35:39.408Z,19.87
2017-04-23T01:36:39.725Z,19.84
2017-04-23T01:37:39.781Z,19.76
2017-04-23T01:38:39.756Z,19.77
2017-04-23T01:39:39.786Z,19.74
2017-04-23T01:40:39.795Z,19.69
2017-04-23T01:41:39.128Z,19.78
2017-04-23T01:42:39.438Z,19.77
2017-04-23T01:43:39.754Z,19.77
2017-04-23T01:44:39.448Z,19.77
2017-04-23T01:45:39.766Z,19.81
2017-04-23T01:46:39.772Z,19.76
2017-04-23T01:47:39.510Z,19.77
2017-04-23T01:48:39.465Z,19.8
2017-04-23T01:49:39.471Z,19.77
2017-04-23T01:50:39.790Z,19.81
2017-04-23T01:51:39.794Z,19.84
2017-04-23T01:52:39.532Z,19.77
2017-04-23T01:53:39.823Z,19.87
2017-04-23T01:54:39.869Z,19.84
2017-04-23T01:55:39.862Z,19.78
2017-04-23T01:56:39.613Z,19.81
2017-04-23T01:57:39.823Z,19.76
2017-04-23T01:58:39.510Z,19.76
2017-04-23T01:59:39.833Z,19.84
2017-04-23T02:00:39.831Z,19.8
2017-04-23T02:01:39.839Z,19.86
2017-04-23T02:02:39.897Z,19.92
2017-04-23T02:03:39.846Z,19.8
2017-04-23T02:04:39.849Z,19.91
2017-04-23T02:05:39.854Z,19.83
2017-04-23T02:06:39.870Z,19.8
2017-04-23T02:07:39.551Z,19.73
2017-04-23T02:08:39.869Z,19.77
2017-04-23T02:09:39.579Z,19.74
2017-04-23T02:10:39.578Z,19.77
2017-04-23T02:11:39.881Z,19.86
2017-04-23T02:12:39.958Z,19.8
2017-04-23T02:13:39.578Z,19.86
2017-04-23T02:14:39.896Z,19.77
2017-04-23T02:15:39.639Z,19.74
2017-04-23T02:16:39.902Z,19.76
2017-04-23T02:17:39.911Z,19.81
2017-04-23T02:18:39.966Z,19.78
2017-04-23T02:19:39.916Z,19.74
2017-04-23T02:20:39.972Z,19.68
2017-04-23T02:21:39.944Z,19.71
2017-04-23T02:22:39.928Z,19.76
2017-04-23T02:23:39.936Z,19.69
2017-04-23T02:24:39.989Z,19.81
2017-04-23T02:25:39.737Z,19.76
2017-04-23T02:26:39.949Z,19.76
2017-04-23T02:27:40.004Z,19.68
2017-04-23T02:28:39.696Z,19.73
2017-04-23T02:29:39.649Z,19.77
2017-04-23T02:30:39.970Z,19.78
2017-04-23T02:31:40.020Z,19.8
2017-04-23T02:32:39.679Z,19.74
2017-04-23T02:33:40.033Z,19.8
2017-04-23T02:34:40.001Z,19.81
2017-04-23T02:35:40.036Z,19.71
2017-04-23T02:36:39.687Z,19.81
2017-04-23T02:37:39.996Z,19.76
2017-04-23T02:38:39.693Z,19.69
2017-04-23T02:39:39.707Z,19.66
2017-04-23T02:40:40.009Z,19.71
2017-04-23T02:41:40.061Z,19.69
2017-04-23T02:42:40.021Z,19.77
2017-04-23T02:43:39.712Z,19.71
2017-04-23T02:44:39.817Z,19.69
2017-04-23T02:45:39.774Z,19.66
2017-04-23T02:46:40.087Z,19.73
2017-04-23T02:47:40.044Z,19.74
2017-04-23T02:48:39.738Z,19.76
2017-04-23T02:49:40.057Z,19.81
2017-04-23T02:50:40.056Z,19.8
2017-04-23T02:51:39.490Z,19.84
2017-04-23T02:52:40.068Z,19.77
2017-04-23T02:53:40.120Z,19.77
2017-04-23T02:54:40.075Z,19.81
2017-04-23T02:55:40.132Z,19.74
2017-04-23T02:56:39.840Z,19.71
2017-04-23T02:57:40.089Z,19.84
2017-04-23T02:58:40.092Z,19.69
2017-04-23T02:59:40.148Z,19.76
2017-04-23T03:00:40.153Z,19.76
2017-04-23T03:01:40.109Z,19.87
2017-04-23T03:02:40.212Z,19.74
2017-04-23T03:03:39.804Z,19.77
2017-04-23T03:04:40.122Z,19.77
2017-04-23T03:05:40.123Z,19.78
2017-04-23T03:06:40.180Z,19.74
2017-04-23T03:07:39.823Z,19.69
2017-04-23T03:08:40.139Z,19.76
2017-04-23T03:09:40.143Z,19.81
2017-04-23T03:10:40.146Z,19.71
2017-04-23T03:11:39.836Z,19.74
2017-04-23T03:12:39.853Z,19.8
2017-04-23T03:13:39.847Z,19.77
2017-04-23T03:14:40.163Z,19.69
2017-04-23T03:15:39.542Z,19.73
2017-04-23T03:16:40.172Z,19.77
2017-04-23T03:17:40.177Z,19.73
2017-04-23T03:18:40.183Z,19.69
2017-04-23T03:19:39.972Z,19.73
2017-04-23T03:20:40.190Z,19.69
2017-04-23T03:21:40.245Z,19.71
2017-04-23T03:22:40.197Z,19.71
2017-04-23T03:23:39.894Z,19.8
2017-04-23T03:24:39.896Z,19.78
2017-04-23T03:25:40.259Z,19.68
2017-04-23T03:26:40.221Z,19.71
2017-04-23T03:27:39.957Z,19.69
2017-04-23T03:28:40.229Z,19.84
2017-04-23T03:29:40.284Z,19.83
2017-04-23T03:30:39.918Z,19.81
2017-04-23T03:31:40.290Z,19.8
2017-04-23T03:32:40.246Z,19.74
2017-04-23T03:33:39.985Z,19.76
2017-04-23T03:34:39.936Z,19.71
2017-04-23T03:35:39.991Z,19.73
2017-04-23T03:36:40.260Z,19.74
2017-04-23T03:37:39.953Z,19.74
2017-04-23T03:38:39.956Z,19.68
2017-04-23T03:39:40.011Z,19.76
2017-04-23T03:40:39.961Z,19.74
2017-04-23T03:41:40.337Z,19.68
2017-04-23T03:42:40.023Z,19.71
2017-04-23T03:43:40.288Z,19.71
2017-04-23T03:44:40.298Z,19.78
2017-04-23T03:45:39.723Z,19.71
2017-04-23T03:46:40.304Z,19.65
2017-04-23T03:47:40.305Z,19.68
2017-04-23T03:48:40.417Z,19.71
2017-04-23T03:49:40.365Z,19.66
2017-04-23T03:50:40.376Z,19.68
2017-04-23T03:51:40.019Z,19.54
2017-04-23T03:52:40.328Z,19.66
2017-04-23T03:53:40.389Z,19.71
2017-04-23T03:54:40.072Z,19.71
2017-04-23T03:55:40.340Z,19.65
2017-04-23T03:56:40.400Z,19.65
2017-04-23T03:57:40.355Z,19.74
2017-04-23T03:58:40.043Z,19.65
2017-04-23T03:59:40.048Z,19.76
2017-04-23T04:00:40.365Z,19.74
2017-04-23T04:01:40.419Z,19.76
2017-04-23T04:02:40.426Z,19.76
2017-04-23T04:03:40.383Z,19.73
2017-04-23T04:04:40.437Z,19.71
2017-04-23T04:05:40.389Z,19.65
2017-04-23T04:06:40.439Z,19.71
2017-04-23T04:07:40.397Z,19.73
2017-04-23T04:08:40.455Z,19.68
2017-04-23T04:09:40.454Z,19.76
2017-04-23T04:10:40.099Z,19.73
2017-04-23T04:11:40.514Z,19.68
2017-04-23T04:12:40.419Z,19.68
2017-04-23T04:13:40.108Z,19.74
2017-04-23T04:14:40.114Z,19.74
2017-04-23T04:15:40.433Z,19.77
2017-04-23T04:16:40.431Z,19.71
2017-04-23T04:17:40.437Z,19.69
2017-04-23T04:18:40.444Z,19.78
2017-04-23T04:19:40.456Z,19.74
2017-04-23T04:20:40.500Z,19.71
2017-04-23T04:21:40.457Z,19.68
2017-04-23T04:22:40.194Z,19.71
2017-04-23T04:23:40.485Z,19.66
2017-04-23T04:25:40.474Z,19.76
2017-04-23T04:26:40.481Z,19.73
2017-04-23T04:27:40.825Z,19.69
2017-04-23T04:28:40.491Z,19.65
2017-04-23T04:29:40.497Z,19.65
2017-04-23T04:30:40.183Z,19.66
2017-04-23T04:31:40.604Z,19.74
2017-04-23T04:32:40.553Z,19.73
2017-04-23T04:33:40.499Z,19.73
2017-04-23T04:34:40.565Z,19.65
2017-04-23T04:35:40.257Z,19.68
2017-04-23T04:36:40.208Z,19.73
2017-04-23T04:37:40.583Z,19.74
2017-04-23T04:38:40.536Z,19.73
2017-04-23T04:39:40.221Z,19.71
2017-04-23T04:40:40.279Z,19.69
2017-04-23T04:41:40.593Z,19.68
2017-04-23T04:42:40.290Z,19.68
2017-04-23T04:43:40.602Z,19.73
2017-04-23T04:44:40.298Z,19.74
2017-04-23T04:45:40.563Z,19.69
2017-04-23T04:46:40.611Z,19.65
2017-04-23T04:47:40.307Z,19.78
2017-04-23T04:48:40.313Z,19.66
2017-04-23T04:49:40.578Z,19.76
2017-04-23T04:50:40.580Z,19.76
2017-04-23T04:51:40.585Z,19.73
2017-04-23T04:52:40.379Z,19.71
2017-04-23T04:53:40.651Z,19.65
2017-04-23T04:54:40.601Z,19.68
2017-04-23T04:55:40.604Z,19.61
2017-04-23T04:56:40.657Z,19.77
2017-04-23T04:57:40.667Z,19.74
2017-04-23T04:58:40.617Z,19.74
2017-04-23T04:59:40.621Z,19.69
2017-04-23T05:00:40.634Z,19.74
2017-04-23T05:01:40.683Z,19.74
2017-04-23T05:02:40.693Z,19.68
2017-04-23T05:03:40.693Z,19.74
2017-04-23T05:04:40.692Z,19.73
2017-04-23T05:05:40.698Z,19.77
2017-04-23T05:06:40.708Z,19.69
2017-04-23T05:07:40.661Z,19.74
2017-04-23T05:08:40.714Z,19.8
2017-04-23T05:09:40.739Z,19.83
2017-04-23T05:10:40.672Z,19.78
2017-04-23T05:11:40.677Z,19.78
2017-04-23T05:12:40.738Z,19.83
2017-04-23T05:13:40.687Z,19.87
2017-04-23T05:14:40.691Z,19.83
2017-04-23T05:15:40.430Z,19.86
2017-04-23T05:16:40.698Z,19.78
2017-04-23T05:17:40.755Z,19.81
2017-04-23T05:18:40.716Z,19.87
2017-04-23T05:19:40.402Z,19.87
2017-04-23T05:20:40.768Z,19.87
2017-04-23T05:21:40.789Z,19.78
2017-04-23T05:22:40.099Z,19.76
2017-04-23T05:23:40.732Z,19.81
2017-04-23T05:24:40.734Z,19.87
2017-04-23T05:25:40.423Z,19.91
2017-04-23T05:26:40.743Z,19.83
2017-04-23T05:27:40.744Z,19.84
2017-04-23T05:28:40.500Z,19.84
2017-04-23T05:29:40.758Z,19.96
2017-04-23T05:30:40.762Z,19.96
2017-04-23T05:31:40.188Z,19.96
2017-04-23T05:32:40.867Z,19.98
2017-04-23T05:33:40.770Z,19.98
2017-04-23T05:34:40.786Z,19.96
2017-04-23T05:35:40.466Z,20.1
2017-04-23T05:36:40.522Z,20.13
2017-04-23T05:37:40.890Z,20.16
2017-04-23T05:38:40.481Z,20.2
2017-04-23T05:39:40.484Z,20.2
2017-04-23T05:40:40.178Z,20.2
2017-04-23T05:41:40.495Z,20.29
2017-04-23T05:42:40.812Z,20.33
2017-04-23T05:43:40.865Z,20.39
2017-04-23T05:44:40.818Z,20.42
2017-04-23T05:45:40.823Z,20.42
2017-04-23T05:46:40.514Z,20.57
2017-04-23T05:47:40.834Z,20.67
2017-04-23T05:48:40.838Z,20.64
2017-04-23T05:49:40.214Z,20.66
2017-04-23T05:50:40.849Z,20.73
2017-04-23T05:51:40.948Z,20.74
2017-04-23T05:52:40.860Z,20.91
2017-04-23T05:53:40.860Z,20.91
2017-04-23T05:54:40.923Z,20.89
2017-04-23T05:55:40.915Z,20.85
2017-04-23T05:56:40.882Z,20.91
2017-04-23T05:57:40.261Z,20.82
2017-04-23T05:58:40.893Z,20.87
2017-04-23T05:59:40.888Z,20.94
2017-04-23T06:00:40.893Z,20.94
2017-04-23T06:01:40.899Z,20.95
2017-04-23T06:02:40.905Z,20.95
2017-04-23T06:03:40.600Z,20.98
2017-04-23T06:04:40.914Z,20.92
2017-04-23T06:05:40.606Z,20.99
2017-04-23T06:06:40.944Z,21.25
2017-04-23T06:07:40.619Z,21.31
2017-04-23T06:08:40.933Z,21.38
2017-04-23T06:09:40.937Z,21.5
2017-04-23T06:10:40.946Z,21.67
2017-04-23T06:11:40.999Z,21.75
2017-04-23T06:12:40.640Z,21.91
2017-04-23T06:13:40.959Z,22.05
2017-04-23T06:14:40.960Z,22.22
2017-04-23T06:15:40.973Z,22.43
2017-04-23T06:16:40.665Z,22.52
2017-04-23T06:17:40.983Z,23.02
2017-04-23T06:18:40.984Z,23.02
2017-04-23T06:19:41.040Z,22.72
2017-04-23T06:20:41.047Z,22.4
2017-04-23T06:21:40.376Z,22.28
2017-04-23T06:22:40.746Z,22.82
2017-04-23T06:23:40.707Z,22.68
2017-04-23T06:24:40.706Z,22.83
2017-04-23T06:25:41.073Z,22.67
2017-04-23T06:26:40.721Z,23.22
2017-04-23T06:27:41.089Z,23.1
2017-04-23T06:28:41.060Z,22.83
2017-04-23T06:29:40.426Z,22.47
2017-04-23T06:30:41.055Z,22.37
2017-04-23T06:31:41.059Z,22.24
2017-04-23T06:32:41.066Z,22.21
2017-04-23T06:33:41.075Z,22.09
2017-04-23T06:34:40.816Z,21.96
2017-04-23T06:35:41.134Z,21.84
2017-04-23T06:36:41.094Z,22.14
2017-04-23T06:37:41.102Z,23.16
2017-04-23T06:38:41.103Z,25.97
2017-04-23T06:39:41.107Z,27.14
2017-04-23T06:40:41.113Z,28.4
2017-04-23T06:41:40.811Z,29.09
2017-04-23T06:42:40.816Z,29.58
2017-04-23T06:43:41.187Z,29.48
2017-04-23T06:44:41.142Z,28.85
2017-04-23T06:45:41.198Z,29.04
2017-04-23T06:46:41.152Z,29.37
2017-04-23T06:47:40.849Z,29.19
2017-04-23T06:48:41.169Z,29.43
2017-04-23T06:49:40.866Z,29.33
2017-04-23T06:50:40.922Z,29.11
2017-04-23T06:51:41.190Z,29.02
2017-04-23T06:52:41.260Z,29
2017-04-23T06:53:41.232Z,29.06
2017-04-23T06:54:41.222Z,29.23
2017-04-23T06:55:41.274Z,29.39
2017-04-23T06:56:40.922Z,29.42
2017-04-23T06:57:41.240Z,29.43
2017-04-23T06:58:41.256Z,29.73
2017-04-23T06:59:41.285Z,29.67
2017-04-23T07:00:41.260Z,29.64
2017-04-23T07:01:41.015Z,29.71
2017-04-23T07:02:41.284Z,29.79
2017-04-23T07:03:41.337Z,29.95
2017-04-23T07:04:41.295Z,30.13
2017-04-23T07:05:41.355Z,29.28
2017-04-23T07:06:41.367Z,29.65
2017-04-23T07:07:41.055Z,29.67
2017-04-23T07:08:41.327Z,27.07
2017-04-23T07:09:41.335Z,25.4
2017-04-23T07:10:41.029Z,24.37
2017-04-23T07:11:41.400Z,23.79
2017-04-23T07:12:41.378Z,23.43
2017-04-23T07:13:41.420Z,23.15
2017-04-23T07:14:41.371Z,23.02
2017-04-23T07:15:41.430Z,22.9
2017-04-23T07:16:41.436Z,23.05
2017-04-23T07:17:41.085Z,23.04
2017-04-23T07:18:41.401Z,23.01
2017-04-23T07:19:41.093Z,23.01
2017-04-23T07:20:41.153Z,22.98
2017-04-23T07:21:41.470Z,22.95
2017-04-23T07:22:41.425Z,22.9
2017-04-23T07:23:41.490Z,22.92
2017-04-23T07:24:41.443Z,22.79
2017-04-23T07:25:41.446Z,22.77
2017-04-23T07:26:41.504Z,22.79
2017-04-23T07:27:41.462Z,22.73
2017-04-23T07:28:41.157Z,22.73
2017-04-23T07:29:41.475Z,22.75
2017-04-23T07:30:41.475Z,22.64
2017-04-23T07:31:41.534Z,22.6
2017-04-23T07:32:41.541Z,22.62
2017-04-23T07:33:41.505Z,22.61
2017-04-23T07:34:41.505Z,22.6
2017-04-23T07:35:41.517Z,22.6
2017-04-23T07:36:41.204Z,22.73
2017-04-23T07:37:41.574Z,22.68
2017-04-23T07:38:41.226Z,22.52
2017-04-23T07:39:41.533Z,22.46
2017-04-23T07:40:41.541Z,22.36
2017-04-23T07:41:41.231Z,22.39
2017-04-23T07:42:41.560Z,22.3
2017-04-23T07:43:41.665Z,22.21
2017-04-23T07:44:41.721Z,22.14
2017-04-23T07:45:41.569Z,22.07
2017-04-23T07:46:41.573Z,22.09
2017-04-23T07:47:41.587Z,21.99
2017-04-23T07:48:41.587Z,21.88
2017-04-23T07:49:41.593Z,21.88
2017-04-23T07:50:41.756Z,21.84
2017-04-23T07:51:41.653Z,21.91
2017-04-23T07:52:41.657Z,21.96
2017-04-23T07:53:41.614Z,22.03
2017-04-23T07:54:41.672Z,22.05
2017-04-23T07:55:41.315Z,21.99
2017-04-23T07:56:41.317Z,21.91
2017-04-23T07:57:41.639Z,22.02
2017-04-23T07:58:41.661Z,21.82
2017-04-23T07:59:41.700Z,21.91
2017-04-23T08:00:41.655Z,21.75
2017-04-23T08:01:41.396Z,21.77
2017-04-23T08:02:41.674Z,21.79
2017-04-23T08:03:41.674Z,21.82
2017-04-23T08:04:41.366Z,21.65
2017-04-23T08:05:41.390Z,21.59
2017-04-23T08:06:41.425Z,21.67
2017-04-23T08:07:41.696Z,21.67
2017-04-23T08:08:41.083Z,21.56
2017-04-23T08:09:41.444Z,21.54
2017-04-23T08:10:41.399Z,21.52
2017-04-23T08:11:41.774Z,21.53
2017-04-23T08:12:41.723Z,21.54
2017-04-23T08:13:41.103Z,21.49
2017-04-23T08:14:41.782Z,21.43
2017-04-23T08:15:41.738Z,21.47
2017-04-23T08:16:41.745Z,21.46
2017-04-23T08:17:41.799Z,21.37
2017-04-23T08:18:41.133Z,21.35
2017-04-23T08:19:41.188Z,21.27
2017-04-23T08:20:41.455Z,21.38
2017-04-23T08:21:41.503Z,21.38
2017-04-23T08:22:41.777Z,21.42
2017-04-23T08:23:41.469Z,21.25
2017-04-23T08:24:41.785Z,21.29
2017-04-23T08:25:41.475Z,21.32
2017-04-23T08:26:41.793Z,21.42
2017-04-23T08:27:41.861Z,21.35
2017-04-23T08:28:41.490Z,21.43
2017-04-23T08:29:41.545Z,21.42
2017-04-23T08:30:41.503Z,21.35
2017-04-23T08:31:41.817Z,21.4
2017-04-23T08:32:41.514Z,21.52
2017-04-23T08:33:41.519Z,21.47
2017-04-23T08:34:41.835Z,21.58
2017-04-23T08:35:41.888Z,21.64
2017-04-23T08:36:41.579Z,21.62
2017-04-23T08:37:41.856Z,21.52
2017-04-23T08:38:41.908Z,21.56
2017-04-23T08:39:41.862Z,21.5
2017-04-23T08:40:41.865Z,21.46
2017-04-23T08:41:41.872Z,21.46
2017-04-23T08:42:41.580Z,21.35
2017-04-23T08:43:41.572Z,21.16
2017-04-23T08:44:41.943Z,21.06
2017-04-23T08:45:41.889Z,20.99
2017-04-23T08:46:41.948Z,20.98
2017-04-23T08:47:41.690Z,21.04
2017-04-23T08:48:41.600Z,21.13
2017-04-23T08:49:41.913Z,21.21
2017-04-23T08:50:41.965Z,21.24
2017-04-23T08:51:41.924Z,21.16
2017-04-23T08:52:41.932Z,21.16
2017-04-23T08:53:41.955Z,21.1
2017-04-23T08:54:42.047Z,21.03
2017-04-23T08:55:41.945Z,21.03
2017-04-23T08:56:42.007Z,20.97
2017-04-23T08:57:41.644Z,21.06
2017-04-23T08:58:41.978Z,21.09
2017-04-23T08:59:42.076Z,21.03
2017-04-23T09:00:41.982Z,21.03
2017-04-23T09:01:41.980Z,20.89
2017-04-23T09:02:42.088Z,20.95
2017-04-23T09:03:42.004Z,20.92
2017-04-23T09:04:42.108Z,20.91
2017-04-23T09:05:42.000Z,20.98
2017-04-23T09:06:41.703Z,20.98
2017-04-23T09:07:42.105Z,20.97
2017-04-23T09:08:41.695Z,20.94
2017-04-23T09:09:41.716Z,20.97
2017-04-23T09:10:41.755Z,21.1
2017-04-23T09:11:42.020Z,21.19
2017-04-23T09:12:42.049Z,21.46
2017-04-23T09:13:41.459Z,21.5
2017-04-23T09:14:42.039Z,21.52
2017-04-23T09:15:42.043Z,21.53
2017-04-23T09:16:41.783Z,21.64
2017-04-23T09:17:41.439Z,21.61
2017-04-23T09:18:41.751Z,21.62
2017-04-23T09:19:41.534Z,21.65
2017-04-23T09:20:42.138Z,21.62
2017-04-23T09:21:41.807Z,21.62
2017-04-23T09:22:42.091Z,21.65
2017-04-23T09:23:41.791Z,21.53
2017-04-23T09:24:42.147Z,21.37
2017-04-23T09:25:41.830Z,21.32
2017-04-23T09:26:41.781Z,21.35
2017-04-23T09:27:42.118Z,21.21
2017-04-23T09:28:41.794Z,21.13
2017-04-23T09:29:41.799Z,21.06
2017-04-23T09:30:41.541Z,20.98
2017-04-23T09:31:41.824Z,20.87
2017-04-23T09:32:41.815Z,20.87
2017-04-23T09:33:42.133Z,20.89
2017-04-23T09:34:42.138Z,20.87
2017-04-23T09:35:42.243Z,20.76
2017-04-23T09:36:42.196Z,20.79
2017-04-23T09:37:42.157Z,20.69
2017-04-23T09:38:41.854Z,20.69
2017-04-23T09:39:42.210Z,20.66
2017-04-23T09:40:41.855Z,20.69
2017-04-23T09:41:41.861Z,20.66
2017-04-23T09:42:41.918Z,20.64
2017-04-23T09:43:42.183Z,20.7
2017-04-23T09:44:41.876Z,20.66
2017-04-23T09:45:42.193Z,20.7
2017-04-23T09:46:41.882Z,20.76
2017-04-23T09:47:42.317Z,20.72
2017-04-23T09:48:42.205Z,20.73
2017-04-23T09:49:41.588Z,20.84
2017-04-23T09:50:41.904Z,20.8
2017-04-23T09:51:41.958Z,20.76
2017-04-23T09:52:42.225Z,20.82
2017-04-23T09:53:41.605Z,20.85
2017-04-23T09:54:41.924Z,20.74
2017-04-23T09:55:42.301Z,20.72
2017-04-23T09:56:42.294Z,20.73
2017-04-23T09:57:41.950Z,20.73
2017-04-23T09:58:41.951Z,20.7
2017-04-23T09:59:42.261Z,20.67
2017-04-23T10:00:42.004Z,20.7
2017-04-23T10:01:42.317Z,20.61
2017-04-23T10:02:42.279Z,20.76
2017-04-23T10:03:42.018Z,20.66
2017-04-23T10:04:42.333Z,20.74
2017-04-23T10:05:42.303Z,20.67
2017-04-23T10:06:42.296Z,20.69
2017-04-23T10:07:42.302Z,20.66
2017-04-23T10:08:42.092Z,20.76
2017-04-23T10:09:42.049Z,20.72
2017-04-23T10:10:42.316Z,20.66
2017-04-23T10:11:42.318Z,20.59
2017-04-23T10:12:42.325Z,20.61
2017-04-23T10:13:42.017Z,20.72
2017-04-23T10:14:42.331Z,20.72
2017-04-23T10:15:42.052Z,20.72
2017-04-23T10:16:42.031Z,20.64
2017-04-23T10:17:42.036Z,20.73
2017-04-23T10:18:42.355Z,20.67
2017-04-23T10:19:42.360Z,20.7
2017-04-23T10:20:42.215Z,20.67
2017-04-23T10:21:42.108Z,20.7
2017-04-23T10:22:42.370Z,20.66
2017-04-23T10:23:42.067Z,20.59
2017-04-23T10:24:42.067Z,20.72
2017-04-23T10:25:42.386Z,20.73
2017-04-23T10:26:42.391Z,20.73
2017-04-23T10:27:42.088Z,20.58
2017-04-23T10:28:42.450Z,20.76
2017-04-23T10:29:42.408Z,20.62
2017-04-23T10:30:42.509Z,20.67
2017-04-23T10:31:42.412Z,20.74
2017-04-23T10:32:42.421Z,20.77
2017-04-23T10:33:42.481Z,20.74
2017-04-23T10:34:42.151Z,20.82
2017-04-23T10:35:42.482Z,20.8
2017-04-23T10:36:42.182Z,20.88
2017-04-23T10:37:42.439Z,20.88
2017-04-23T10:38:42.136Z,20.98
2017-04-23T10:39:42.142Z,21.06
2017-04-23T10:40:42.557Z,21.17
2017-04-23T10:41:42.149Z,21.16
2017-04-23T10:42:42.468Z,21.17
2017-04-23T10:43:42.538Z,21.04
2017-04-23T10:44:42.477Z,21.12
2017-04-23T10:45:42.269Z,21.04
2017-04-23T10:46:42.533Z,20.95
2017-04-23T10:47:42.236Z,20.94
2017-04-23T10:48:42.496Z,20.84
2017-04-23T10:49:42.499Z,20.85
2017-04-23T10:50:42.196Z,20.79
2017-04-23T10:51:42.201Z,20.72
2017-04-23T10:52:42.589Z,20.69
2017-04-23T10:53:42.519Z,20.73
2017-04-23T10:54:42.210Z,20.8
2017-04-23T10:55:42.297Z,20.88
2017-04-23T10:56:42.324Z,20.91
2017-04-23T10:57:42.539Z,20.97
2017-04-23T10:58:42.545Z,21.09
2017-04-23T10:59:42.547Z,21.04
2017-04-23T11:00:42.241Z,21.01
2017-04-23T11:01:42.568Z,20.97
2017-04-23T11:02:42.306Z,20.92
2017-04-23T11:03:42.362Z,20.92
2017-04-23T11:04:42.360Z,20.92
2017-04-23T11:05:42.576Z,20.91
2017-04-23T11:06:42.631Z,20.91
2017-04-23T11:07:42.278Z,20.91
2017-04-23T11:08:42.332Z,21.03
2017-04-23T11:09:42.695Z,21.1
2017-04-23T11:10:42.302Z,21.09
2017-04-23T11:11:42.032Z,21.13
2017-04-23T11:12:42.615Z,21.24
2017-04-23T11:13:42.667Z,21.22
2017-04-23T11:14:42.726Z,21.27
2017-04-23T11:15:42.363Z,21.19
2017-04-23T11:16:42.628Z,21.13
2017-04-23T11:17:42.649Z,21.14
2017-04-23T11:18:42.379Z,21.07
2017-04-23T11:19:42.645Z,21.1
2017-04-23T11:20:42.039Z,21.07
2017-04-23T11:21:42.343Z,21.1
2017-04-23T11:22:42.353Z,21.07
2017-04-23T11:23:42.669Z,21.07
2017-04-23T11:24:42.675Z,21.09
2017-04-23T11:25:42.365Z,21.09
2017-04-23T11:26:42.370Z,21.07
2017-04-23T11:27:42.748Z,21.16
2017-04-23T11:28:42.690Z,21.27
2017-04-23T11:29:42.695Z,21.16
2017-04-23T11:30:42.701Z,21.16
2017-04-23T11:31:42.395Z,21.1
2017-04-23T11:32:42.450Z,20.98
2017-04-23T11:33:42.717Z,20.88
2017-04-23T11:34:42.723Z,20.89
2017-04-23T11:35:42.515Z,20.88
2017-04-23T11:36:42.732Z,20.82
2017-04-23T11:37:42.841Z,20.82
2017-04-23T11:38:42.795Z,20.72
2017-04-23T11:39:42.753Z,20.7
2017-04-23T11:40:42.749Z,20.73
2017-04-23T11:41:42.444Z,20.66
2017-04-23T11:42:42.498Z,20.62
2017-04-23T11:43:42.820Z,20.67
2017-04-23T11:44:42.562Z,20.58
2017-04-23T11:45:42.833Z,20.55
2017-04-23T11:46:42.778Z,20.51
2017-04-23T11:47:42.839Z,20.47
2017-04-23T11:48:42.840Z,20.39
2017-04-23T11:49:42.796Z,20.33
2017-04-23T11:50:42.852Z,20.36
2017-04-23T11:51:42.229Z,20.39
2017-04-23T11:52:42.810Z,20.28
2017-04-23T11:53:42.553Z,20.29
2017-04-23T11:54:42.915Z,20.29
2017-04-23T11:55:42.881Z,20.26
2017-04-23T11:56:42.841Z,20.17
2017-04-23T11:57:42.863Z,20.26
2017-04-23T11:58:42.846Z,20.18
2017-04-23T11:59:42.905Z,20.21
2017-04-23T12:00:42.855Z,20.2
2017-04-23T12:01:42.590Z,20.06
2017-04-23T12:02:42.859Z,20.14
2017-04-23T12:03:42.918Z,20.05
2017-04-23T12:04:42.885Z,20.06
2017-04-23T12:05:42.873Z,20.02
2017-04-23T12:06:42.571Z,20.06
2017-04-23T12:07:42.882Z,20.13
2017-04-23T12:08:42.884Z,20.08
2017-04-23T12:09:42.887Z,20.01
2017-04-23T12:10:42.892Z,20.01
2017-04-23T12:11:42.693Z,20.14
2017-04-23T12:12:42.734Z,20.08
2017-04-23T12:13:42.905Z,20.1
2017-04-23T12:14:42.961Z,20.16
2017-04-23T12:15:42.603Z,20.18
2017-04-23T12:16:42.664Z,20.2
2017-04-23T12:17:42.930Z,20.18
2017-04-23T12:18:42.617Z,20.28
2017-04-23T12:19:42.677Z,20.29
2017-04-23T12:20:42.944Z,20.32
2017-04-23T12:21:42.376Z,20.33
2017-04-23T12:22:42.948Z,20.33
2017-04-23T12:23:42.643Z,20.38
2017-04-23T12:24:42.955Z,20.38
2017-04-23T12:25:42.652Z,20.42
2017-04-23T12:26:42.654Z,20.54
2017-04-23T12:27:43.023Z,20.5
2017-04-23T12:28:42.697Z,20.5
2017-04-23T12:29:42.671Z,20.54
2017-04-23T12:30:42.669Z,20.58
2017-04-23T12:31:42.993Z,20.52
2017-04-23T12:32:43.053Z,20.73
2017-04-23T12:33:43.101Z,20.72
2017-04-23T12:34:42.731Z,20.76
2017-04-23T12:35:43.133Z,20.72
2017-04-23T12:36:43.027Z,20.77
2017-04-23T12:37:42.741Z,20.72
2017-04-23T12:38:42.812Z,20.79
2017-04-23T12:39:43.042Z,20.72
2017-04-23T12:40:43.141Z,20.77
2017-04-23T12:41:42.482Z,20.73
2017-04-23T12:42:43.053Z,20.74
2017-04-23T12:43:43.113Z,20.76
2017-04-23T12:44:43.087Z,20.72
2017-04-23T12:45:42.810Z,20.7
2017-04-23T12:46:42.792Z,20.58
2017-04-23T12:47:42.449Z,20.73
2017-04-23T12:48:43.127Z,20.74
2017-04-23T12:49:42.799Z,20.66
2017-04-23T12:50:42.864Z,20.8
2017-04-23T12:51:43.154Z,21.12
2017-04-23T12:52:43.265Z,21.27
2017-04-23T12:53:42.892Z,21.4
2017-04-23T12:54:43.246Z,21.61
2017-04-23T12:55:43.188Z,21.74